createdAt,value
2023-05-01T00:00:50.199Z,18.00
2023-05-01T00:01:50.209Z,17.80
2023-05-01T00:02:50.260Z,18.50
2023-05-01T00:03:50.323Z,17.30
2023-05-01T00:04:50.169Z,17.00
2023-05-01T00:05:50.160Z,17.20
2023-05-01T00:06:50.256Z,16.80
2023-05-01T00:07:50.136Z,16.10
2023-05-01T00:08:50.862Z,16.50
2023-05-01T00:09:50.106Z,17.30
2023-05-01T00:10:50.104Z,17.70
2023-05-01T00:11:50.079Z,16.00
2023-05-01T00:12:50.093Z,17.00
2023-05-01T00:13:50.066Z,17.00
2023-05-01T00:14:50.065Z,16.70
2023-05-01T00:15:50.037Z,17.20
2023-05-01T00:16:50.224Z,17.90
2023-05-01T00:17:50.066Z,17.40
2023-05-01T00:18:50.240Z,17.70
2023-05-01T00:19:49.976Z,18.10
2023-05-01T00:20:49.974Z,18.50
2023-05-01T00:21:49.981Z,18.60
2023-05-01T00:22:49.978Z,18.60
2023-05-01T00:23:49.948Z,19.20
2023-05-01T00:24:49.970Z,18.60
2023-05-01T00:25:49.942Z,18.90
2023-05-01T00:26:49.895Z,17.80
2023-05-01T00:27:49.906Z,18.60
2023-05-01T00:28:49.964Z,18.50
2023-05-01T00:29:49.862Z,19.30
2023-05-01T00:30:49.866Z,19.40
2023-05-01T00:31:49.894Z,19.90
2023-05-01T00:32:49.937Z,18.90
2023-05-01T00:33:49.829Z,20.50
2023-05-01T00:34:49.823Z,21.50
2023-05-01T00:35:49.810Z,20.10
2023-05-01T00:37:10.805Z,21.80
2023-05-01T00:37:49.794Z,20.40
2023-05-01T00:38:49.811Z,21.30
2023-05-01T00:39:49.755Z,21.40
2023-05-01T00:40:49.765Z,19.50
2023-05-01T00:41:49.748Z,21.30
2023-05-01T00:42:49.742Z,21.10
2023-05-01T00:43:49.726Z,20.20
2023-05-01T00:44:49.728Z,20.60
2023-05-01T00:45:49.739Z,20.80
2023-05-01T00:46:49.693Z,19.90
2023-05-01T00:47:49.789Z,20.30
2023-05-01T00:48:50.385Z,20.30
2023-05-01T00:49:50.064Z,20.30
2023-05-01T00:50:51.935Z,19.80
2023-05-01T00:51:51.653Z,20.70
2023-05-01T00:52:50.812Z,22.40
2023-05-01T00:53:49.694Z,22.10
2023-05-01T00:54:49.617Z,21.60
2023-05-01T00:55:49.625Z,22.20
2023-05-01T00:56:49.580Z,21.30
2023-05-01T00:57:49.554Z,20.10
2023-05-01T00:58:50.720Z,21.40
2023-05-01T00:59:49.534Z,21.70
2023-05-01T01:00:49.555Z,21.90
2023-05-01T01:01:49.514Z,20.50
2023-05-01T01:02:49.496Z,20.00
2023-05-01T01:03:49.491Z,19.80
2023-05-01T01:04:49.576Z,20.10
2023-05-01T01:05:49.478Z,19.80
2023-05-01T01:06:49.538Z,20.30
2023-05-01T01:07:49.444Z,20.10
2023-05-01T01:08:49.437Z,19.90
2023-05-01T01:09:49.437Z,19.70
2023-05-01T01:10:49.407Z,19.40
2023-05-01T01:11:49.425Z,21.20
2023-05-01T01:12:49.391Z,21.30
2023-05-01T01:13:49.404Z,21.20
2023-05-01T01:14:49.369Z,21.10
2023-05-01T01:15:49.366Z,20.90
2023-05-01T01:16:49.399Z,20.00
2023-05-01T01:17:49.376Z,21.80
2023-05-01T01:18:49.329Z,19.80
2023-05-01T01:19:49.337Z,20.80
2023-05-01T01:20:49.314Z,21.60
2023-05-01T01:21:49.306Z,20.70
2023-05-01T01:22:49.273Z,21.40
2023-05-01T01:23:49.302Z,21.50
2023-05-01T01:24:49.254Z,20.70
2023-05-01T01:25:49.274Z,22.50
2023-05-01T01:26:49.221Z,20.90
2023-05-01T01:27:49.247Z,21.90
2023-05-01T01:28:49.225Z,21.50
2023-05-01T01:29:49.206Z,20.40
2023-05-01T01:30:49.224Z,20.40
2023-05-01T01:31:49.175Z,21.00
2023-05-01T01:32:49.222Z,21.00
2023-05-01T01:33:49.198Z,20.90
2023-05-01T01:34:49.131Z,21.10
2023-05-01T01:35:49.156Z,21.20
2023-05-01T01:36:49.130Z,20.40
2023-05-01T01:37:49.102Z,20.70
2023-05-01T01:38:49.106Z,22.00
2023-05-01T01:39:49.099Z,21.60
2023-05-01T01:40:49.077Z,21.40
2023-05-01T01:41:49.083Z,21.60
2023-05-01T01:42:49.066Z,21.00
2023-05-01T01:43:49.057Z,21.10
2023-05-01T01:44:49.036Z,21.50
2023-05-01T01:45:49.066Z,21.80
2023-05-01T01:46:49.039Z,20.50
2023-05-01T01:47:49.015Z,21.30
2023-05-01T01:48:48.979Z,22.00
2023-05-01T01:49:48.978Z,21.40
2023-05-01T01:50:48.961Z,21.90
2023-05-01T01:51:48.961Z,21.30
2023-05-01T01:52:48.943Z,20.80
2023-05-01T01:53:48.922Z,22.40
2023-05-01T01:54:48.927Z,22.40
2023-05-01T01:55:48.900Z,22.20
2023-05-01T01:56:48.897Z,22.60
2023-05-01T01:57:48.906Z,21.50
2023-05-01T01:58:48.873Z,21.90
2023-05-01T01:59:48.900Z,23.10
2023-05-01T02:00:48.832Z,22.20
2023-05-01T02:01:48.884Z,22.30
2023-05-01T02:02:48.982Z,22.70
2023-05-01T02:03:48.993Z,22.60
2023-05-01T02:04:48.812Z,23.10
2023-05-01T02:05:48.801Z,22.40
2023-05-01T02:06:48.800Z,20.90
2023-05-01T02:07:48.789Z,21.90
2023-05-01T02:08:48.778Z,22.40
2023-05-01T02:09:48.762Z,21.50
2023-05-01T02:10:48.746Z,22.80
2023-05-01T02:11:48.717Z,22.90
2023-05-01T02:12:48.736Z,22.10
2023-05-01T02:13:48.717Z,23.50
2023-05-01T02:14:48.698Z,21.50
2023-05-01T02:15:48.737Z,21.90
2023-05-01T02:16:48.678Z,22.20
2023-05-01T02:17:48.697Z,23.40
2023-05-01T02:18:48.651Z,21.60
2023-05-01T02:19:48.636Z,22.60
2023-05-01T02:20:48.638Z,21.40
2023-05-01T02:21:48.693Z,23.10
2023-05-01T02:22:48.633Z,21.80
2023-05-01T02:23:48.610Z,21.30
2023-05-01T02:24:48.603Z,22.90
2023-05-01T02:25:48.616Z,22.50
2023-05-01T02:26:48.559Z,23.40
2023-05-01T02:27:48.566Z,23.10
2023-05-01T02:28:49.809Z,22.10
2023-05-01T02:29:49.713Z,21.90
2023-05-01T02:30:48.667Z,21.10
2023-05-01T02:31:48.537Z,22.10
2023-05-01T02:32:48.551Z,21.90
2023-05-01T02:33:48.474Z,22.80
2023-05-01T02:34:48.670Z,20.70
2023-05-01T02:35:48.471Z,21.70
2023-05-01T02:36:48.448Z,22.30
2023-05-01T02:37:48.481Z,22.10
2023-05-01T02:38:48.428Z,21.40
2023-05-01T02:39:48.882Z,21.00
2023-05-01T02:40:48.965Z,21.40
2023-05-01T02:41:48.444Z,22.10
2023-05-01T02:42:48.509Z,22.60
2023-05-01T02:43:48.379Z,22.00
2023-05-01T02:44:48.458Z,22.50
2023-05-01T02:45:48.504Z,22.10
2023-05-01T02:46:48.442Z,22.20
2023-05-01T02:47:48.718Z,21.90
2023-05-01T02:48:48.620Z,22.80
2023-05-01T02:49:48.740Z,22.70
2023-05-01T02:50:48.298Z,22.50
2023-05-01T02:51:48.313Z,22.80
2023-05-01T02:52:49.211Z,22.70
2023-05-01T02:53:48.249Z,20.70
2023-05-01T02:54:48.234Z,21.30
2023-05-01T02:55:48.254Z,21.70
2023-05-01T02:56:48.245Z,22.20
2023-05-01T02:57:48.206Z,22.10
2023-05-01T02:58:48.203Z,21.80
2023-05-01T02:59:48.196Z,22.50
2023-05-01T03:00:48.206Z,23.60
2023-05-01T03:01:48.201Z,23.00
2023-05-01T03:02:48.233Z,23.10
2023-05-01T03:03:48.166Z,21.80
2023-05-01T03:04:48.172Z,22.50
2023-05-01T03:05:48.211Z,20.70
2023-05-01T03:06:48.282Z,21.60
2023-05-01T03:07:48.120Z,21.10
2023-05-01T03:08:48.086Z,21.40
2023-05-01T03:09:48.080Z,21.10
2023-05-01T03:10:48.060Z,21.90
2023-05-01T03:11:48.048Z,21.80
2023-05-01T03:12:48.050Z,22.50
2023-05-01T03:13:48.058Z,21.00
2023-05-01T03:14:48.022Z,21.60
2023-05-01T03:15:48.009Z,21.70
2023-05-01T03:16:48.085Z,21.90
2023-05-01T03:17:48.002Z,22.00
2023-05-01T03:18:47.992Z,22.60
2023-05-01T03:19:47.973Z,21.20
2023-05-01T03:20:47.960Z,21.00
2023-05-01T03:21:47.950Z,22.40
2023-05-01T03:22:47.944Z,21.50
2023-05-01T03:23:47.945Z,23.50
2023-05-01T03:24:47.928Z,22.90
2023-05-01T03:25:47.911Z,22.60
2023-05-01T03:26:47.876Z,23.20
2023-05-01T03:27:47.895Z,23.40
2023-05-01T03:28:47.867Z,23.10
2023-05-01T03:29:47.879Z,21.90
2023-05-01T03:30:47.841Z,22.00
2023-05-01T03:31:47.829Z,23.20
2023-05-01T03:32:47.880Z,21.70
2023-05-01T03:33:47.811Z,22.40
2023-05-01T03:34:47.837Z,23.30
2023-05-01T03:35:47.836Z,22.30
2023-05-01T03:36:47.770Z,22.90
2023-05-01T03:37:47.752Z,21.70
2023-05-01T03:38:47.744Z,23.20
2023-05-01T03:39:47.748Z,23.10
2023-05-01T03:40:47.725Z,22.40
2023-05-01T03:41:47.726Z,21.10
2023-05-01T03:42:47.696Z,21.20
2023-05-01T03:43:47.731Z,21.90
2023-05-01T03:44:47.705Z,21.30
2023-05-01T03:45:47.690Z,21.40
2023-05-01T03:46:47.739Z,21.10
2023-05-01T03:47:47.762Z,21.70
2023-05-01T03:48:47.984Z,21.30
2023-05-01T03:49:47.650Z,21.60
2023-05-01T03:50:47.654Z,21.20
2023-05-01T03:51:47.600Z,21.90
2023-05-01T03:52:50.214Z,22.40
2023-05-01T03:53:47.648Z,21.20
2023-05-01T03:54:47.609Z,21.10
2023-05-01T03:55:47.570Z,22.00
2023-05-01T03:56:47.768Z,21.70
2023-05-01T03:57:48.604Z,20.60
2023-05-01T03:58:49.268Z,22.30
2023-05-01T03:59:47.555Z,22.40
2023-05-01T04:00:47.664Z,23.00
2023-05-01T04:01:47.539Z,21.50
2023-05-01T04:02:47.753Z,22.10
2023-05-01T04:03:47.827Z,20.90
2023-05-01T04:04:47.484Z,21.20
2023-05-01T04:05:47.481Z,21.10
2023-05-01T04:06:47.541Z,21.40
2023-05-01T04:07:47.505Z,21.70
2023-05-01T04:08:47.453Z,21.10
2023-05-01T04:09:47.427Z,21.70
2023-05-01T04:10:47.396Z,23.00
2023-05-01T04:11:47.569Z,22.90
2023-05-01T04:12:47.574Z,20.50
2023-05-01T04:13:47.392Z,21.80
2023-05-01T04:14:48.681Z,21.80
2023-05-01T04:15:47.444Z,21.80
2023-05-01T04:16:47.328Z,21.50
2023-05-01T04:17:47.422Z,21.70
2023-05-01T04:18:47.403Z,21.90
2023-05-01T04:19:47.366Z,22.90
2023-05-01T04:20:47.321Z,22.00
2023-05-01T04:21:47.938Z,22.90
2023-05-01T04:22:47.817Z,22.10
2023-05-01T04:23:47.249Z,23.00
2023-05-01T04:24:47.262Z,22.30
2023-05-01T04:25:47.246Z,21.40
2023-05-01T04:26:47.260Z,21.00
2023-05-01T04:27:48.308Z,21.80
2023-05-01T04:28:47.730Z,22.00
2023-05-01T04:29:47.220Z,20.90
2023-05-01T04:30:47.178Z,21.00
2023-05-01T04:31:47.800Z,22.00
2023-05-01T04:32:48.142Z,20.80
2023-05-01T04:33:47.145Z,21.00
2023-05-01T04:34:47.163Z,21.50
2023-05-01T04:35:47.126Z,21.40
2023-05-01T04:36:47.530Z,20.30
2023-05-01T04:37:47.846Z,20.10
2023-05-01T04:38:47.943Z,19.90
2023-05-01T04:39:47.087Z,19.80
2023-05-01T04:40:47.739Z,19.90
2023-05-01T04:41:47.100Z,20.90
2023-05-01T04:42:47.066Z,21.00
2023-05-01T04:43:47.072Z,21.20
2023-05-01T04:44:47.089Z,21.50
2023-05-01T04:45:47.088Z,20.80
2023-05-01T04:46:47.053Z,21.00
2023-05-01T04:47:47.122Z,21.20
2023-05-01T04:48:46.997Z,21.50
2023-05-01T04:49:46.979Z,20.50
2023-05-01T04:50:46.987Z,20.80
2023-05-01T04:51:46.964Z,20.30
2023-05-01T04:52:46.930Z,21.40
2023-05-01T04:53:46.921Z,22.10
2023-05-01T04:54:46.926Z,22.10
2023-05-01T04:55:47.003Z,21.60
2023-05-01T04:56:46.937Z,20.60
2023-05-01T04:57:46.902Z,21.30
2023-05-01T04:58:46.858Z,20.90
2023-05-01T04:59:46.865Z,20.10
2023-05-01T05:00:46.879Z,19.80
2023-05-01T05:01:46.942Z,20.00
2023-05-01T05:02:47.033Z,21.30
2023-05-01T05:03:49.984Z,21.20
2023-05-01T05:04:48.068Z,21.50
2023-05-01T05:05:47.721Z,22.80
2023-05-01T05:06:48.749Z,23.10
2023-05-01T05:07:57.854Z,23.20
2023-05-01T05:08:46.743Z,22.10
2023-05-01T05:09:46.711Z,22.30
2023-05-01T05:10:46.730Z,21.80
2023-05-01T05:11:46.719Z,22.00
2023-05-01T05:12:46.687Z,21.60
2023-05-01T05:13:46.699Z,21.00
2023-05-01T05:14:46.678Z,21.40
2023-05-01T05:15:46.646Z,22.10
2023-05-01T05:16:46.745Z,22.70
2023-05-01T05:17:46.650Z,23.10
2023-05-01T05:18:46.669Z,22.90
2023-05-01T05:19:46.657Z,22.90
2023-05-01T05:20:46.628Z,23.30
2023-05-01T05:21:46.620Z,23.10
2023-05-01T05:22:46.584Z,24.10
2023-05-01T05:23:46.580Z,23.90
2023-05-01T05:24:46.588Z,23.40
2023-05-01T05:25:46.586Z,23.70
2023-05-01T05:26:46.549Z,24.30
2023-05-01T05:27:46.542Z,23.40
2023-05-01T05:28:46.538Z,23.70
2023-05-01T05:29:46.523Z,25.20
2023-05-01T05:30:46.530Z,24.60
2023-05-01T05:31:46.541Z,24.60
2023-05-01T05:32:46.505Z,23.80
2023-05-01T05:33:46.478Z,25.50
2023-05-01T05:34:46.464Z,23.30
2023-05-01T05:35:46.453Z,24.30
2023-05-01T05:36:46.440Z,24.10
2023-05-01T05:37:46.434Z,24.90
2023-05-01T05:38:46.424Z,23.10
2023-05-01T05:39:46.432Z,24.10
2023-05-01T05:40:46.420Z,23.60
2023-05-01T05:41:46.365Z,23.50
2023-05-01T05:42:46.362Z,24.30
2023-05-01T05:43:46.349Z,23.50
2023-05-01T05:44:46.337Z,23.60
2023-05-01T05:45:46.339Z,24.20
2023-05-01T05:46:46.312Z,23.50
2023-05-01T05:47:46.316Z,23.60
2023-05-01T05:48:46.318Z,22.80
2023-05-01T05:49:46.290Z,22.60
2023-05-01T05:50:46.284Z,22.70
2023-05-01T05:51:46.257Z,23.30
2023-05-01T05:52:46.258Z,23.60
2023-05-01T05:53:46.241Z,22.70
2023-05-01T05:54:46.239Z,23.90
2023-05-01T05:55:46.233Z,23.50
2023-05-01T05:56:46.244Z,23.20
2023-05-01T05:57:46.211Z,22.40
2023-05-01T05:58:46.191Z,22.90
2023-05-01T05:59:46.179Z,22.70
2023-05-01T06:00:46.172Z,23.20
2023-05-01T06:01:46.182Z,22.90
2023-05-01T06:02:46.226Z,23.70
2023-05-01T06:03:46.187Z,23.30
2023-05-01T06:04:46.135Z,22.60
2023-05-01T06:05:46.205Z,22.10
2023-05-01T06:06:46.224Z,22.60
2023-05-01T06:07:46.105Z,22.80
2023-05-01T06:08:46.088Z,22.70
2023-05-01T06:09:46.096Z,22.90
2023-05-01T06:10:46.090Z,23.00
2023-05-01T06:11:46.073Z,22.60
2023-05-01T06:12:50.000Z,22.80
2023-05-01T06:13:47.034Z,23.10
2023-05-01T06:14:46.024Z,22.30
2023-05-01T06:15:46.096Z,23.20
2023-05-01T06:16:45.974Z,23.00
2023-05-01T06:17:46.017Z,22.10
2023-05-01T06:18:46.074Z,21.40
2023-05-01T06:19:45.954Z,23.10
2023-05-01T06:20:45.974Z,23.80
2023-05-01T06:21:45.918Z,22.20
2023-05-01T06:22:45.915Z,21.20
2023-05-01T06:23:45.902Z,22.90
2023-05-01T06:24:45.896Z,22.80
2023-05-01T06:25:45.934Z,22.00
2023-05-01T06:26:45.866Z,22.20
2023-05-01T06:27:45.857Z,22.60
2023-05-01T06:28:45.845Z,22.00
2023-05-01T06:29:45.822Z,23.10
2023-05-01T06:30:45.859Z,23.00
2023-05-01T06:31:45.861Z,22.40
2023-05-01T06:32:45.932Z,22.80
2023-05-01T06:33:45.804Z,23.70
2023-05-01T06:34:45.794Z,21.20
2023-05-01T06:35:45.794Z,22.70
2023-05-01T06:36:45.762Z,22.10
2023-05-01T06:37:45.741Z,23.10
2023-05-01T06:38:45.754Z,21.80
2023-05-01T06:39:45.727Z,23.10
2023-05-01T06:40:45.764Z,22.70
2023-05-01T06:41:45.717Z,22.40
2023-05-01T06:42:45.718Z,21.60
2023-05-01T06:43:45.691Z,22.70
2023-05-01T06:44:45.690Z,21.50
2023-05-01T06:45:45.680Z,22.50
2023-05-01T06:46:45.754Z,21.60
2023-05-01T06:47:45.781Z,22.40
2023-05-01T06:48:45.655Z,22.00
2023-05-01T06:49:45.603Z,22.10
2023-05-01T06:50:45.634Z,22.60
2023-05-01T06:51:45.586Z,21.30
2023-05-01T06:52:45.607Z,22.30
2023-05-01T06:53:45.566Z,22.60
2023-05-01T06:54:45.578Z,21.30
2023-05-01T06:55:45.569Z,22.70
2023-05-01T06:56:45.529Z,22.10
2023-05-01T06:57:45.547Z,22.10
2023-05-01T06:58:45.511Z,22.80
2023-05-01T06:59:45.501Z,22.60
2023-05-01T07:00:45.500Z,22.90
2023-05-01T07:01:45.531Z,23.00
2023-05-01T07:02:45.611Z,22.50
2023-05-01T07:03:45.514Z,22.80
2023-05-01T07:04:45.513Z,22.30
2023-05-01T07:05:45.454Z,22.80
2023-05-01T07:06:45.600Z,21.50
2023-05-01T07:07:54.111Z,21.80
2023-05-01T07:08:46.448Z,23.50
2023-05-01T07:09:45.403Z,22.00
2023-05-01T07:10:45.414Z,20.80
2023-05-01T07:11:45.365Z,20.20
2023-05-01T07:12:45.392Z,19.80
2023-05-01T07:13:45.366Z,19.30
2023-05-01T07:14:45.359Z,20.40
2023-05-01T07:15:45.349Z,18.80
2023-05-01T07:16:45.338Z,19.10
2023-05-01T07:17:45.359Z,19.60
2023-05-01T07:18:45.349Z,19.10
2023-05-01T07:19:45.289Z,19.20
2023-05-01T07:20:45.285Z,20.00
2023-05-01T07:21:45.251Z,19.30
2023-05-01T07:22:45.272Z,18.80
2023-05-01T07:23:45.232Z,18.70
2023-05-01T07:24:45.247Z,18.90
2023-05-01T07:25:45.245Z,18.10
2023-05-01T07:26:45.244Z,17.80
2023-05-01T07:27:45.208Z,18.30
2023-05-01T07:28:45.203Z,18.90
2023-05-01T07:29:45.185Z,18.30
2023-05-01T07:30:45.148Z,19.70
2023-05-01T07:31:45.252Z,18.30
2023-05-01T07:32:45.206Z,19.40
2023-05-01T07:33:45.115Z,19.30
2023-05-01T07:34:45.144Z,19.30
2023-05-01T07:35:45.115Z,18.60
2023-05-01T07:36:45.086Z,18.60
2023-05-01T07:37:45.068Z,18.40
2023-05-01T07:38:45.085Z,18.10
2023-05-01T07:39:45.108Z,18.80
2023-05-01T07:40:45.048Z,18.50
2023-05-01T07:41:45.041Z,19.20
2023-05-01T07:42:45.055Z,18.10
2023-05-01T07:43:44.995Z,17.80
2023-05-01T07:44:45.020Z,18.60
2023-05-01T07:45:45.019Z,17.90
2023-05-01T07:46:44.975Z,18.80
2023-05-01T07:47:44.998Z,18.80
2023-05-01T07:48:44.998Z,18.60
2023-05-01T07:49:44.957Z,17.50
2023-05-01T07:50:44.944Z,17.60
2023-05-01T07:51:44.918Z,17.60
2023-05-01T07:52:44.935Z,17.80
2023-05-01T07:53:44.898Z,16.90
2023-05-01T07:54:44.919Z,17.50
2023-05-01T07:55:44.876Z,17.40
2023-05-01T07:56:44.895Z,17.70
2023-05-01T07:57:44.846Z,18.20
2023-05-01T07:58:44.890Z,18.00
2023-05-01T07:59:44.847Z,17.80
2023-05-01T08:00:44.831Z,17.20
2023-05-01T08:01:44.847Z,17.80
2023-05-01T08:02:44.865Z,17.10
2023-05-01T08:03:44.865Z,17.90
2023-05-01T08:04:44.820Z,17.70
2023-05-01T08:05:44.759Z,17.20
2023-05-01T08:06:44.810Z,17.60
2023-05-01T08:07:44.734Z,17.60
2023-05-01T08:08:44.724Z,17.90
2023-05-01T08:09:44.734Z,16.80
2023-05-01T08:10:44.714Z,18.00
2023-05-01T08:11:44.696Z,16.80
2023-05-01T08:12:44.939Z,17.80
2023-05-01T08:13:44.681Z,17.00
2023-05-01T08:14:44.666Z,17.00
2023-05-01T08:15:44.709Z,16.40
2023-05-01T08:16:44.825Z,16.70
2023-05-01T08:17:44.694Z,17.10
2023-05-01T08:18:44.627Z,17.20
2023-05-01T08:19:44.601Z,17.20
2023-05-01T08:20:44.604Z,17.70
2023-05-01T08:21:44.573Z,17.50
2023-05-01T08:22:44.569Z,17.10
2023-05-01T08:23:44.581Z,16.70
2023-05-01T08:24:44.545Z,17.40
2023-05-01T08:25:45.496Z,17.30
2023-05-01T08:26:44.542Z,17.10
2023-05-01T08:27:44.532Z,17.10
2023-05-01T08:28:44.546Z,16.20
2023-05-01T08:29:44.492Z,17.50
2023-05-01T08:30:44.513Z,16.70
2023-05-01T08:31:44.588Z,17.60
2023-05-01T08:32:44.625Z,17.70
2023-05-01T08:33:44.507Z,17.40
2023-05-01T08:34:44.446Z,18.10
2023-05-01T08:35:44.426Z,18.20
2023-05-01T08:36:44.438Z,18.90
2023-05-01T08:37:44.405Z,18.90
2023-05-01T08:38:44.409Z,17.90
2023-05-01T08:39:44.385Z,19.00
2023-05-01T08:40:44.389Z,18.10
2023-05-01T08:41:44.367Z,18.40
2023-05-01T08:42:44.353Z,19.90
2023-05-01T08:43:44.348Z,20.00
2023-05-01T08:44:44.375Z,20.80
2023-05-01T08:45:44.305Z,21.70
2023-05-01T08:46:44.389Z,19.60
2023-05-01T08:47:44.358Z,21.30
2023-05-01T08:48:44.275Z,20.60
2023-05-01T08:49:44.274Z,22.30
2023-05-01T08:50:44.249Z,22.70
2023-05-01T08:51:44.292Z,23.00
2023-05-01T08:52:44.233Z,23.70
2023-05-01T08:53:44.227Z,23.80
2023-05-01T08:54:44.229Z,24.30
2023-05-01T08:55:44.197Z,24.60
2023-05-01T08:56:44.206Z,25.50
2023-05-01T08:57:44.198Z,24.80
2023-05-01T08:58:44.156Z,26.10
2023-05-01T08:59:44.171Z,27.60
2023-05-01T09:00:44.172Z,25.80
2023-05-01T09:01:44.250Z,27.70
2023-05-01T09:02:44.202Z,27.30
2023-05-01T09:03:44.158Z,25.80
2023-05-01T09:04:44.112Z,25.90
2023-05-01T09:05:44.102Z,24.40
2023-05-01T09:06:44.152Z,25.70
2023-05-01T09:07:44.078Z,25.80
2023-05-01T09:08:44.067Z,27.30
2023-05-01T09:09:44.032Z,26.20
2023-05-01T09:10:44.034Z,25.70
2023-05-01T09:11:44.027Z,26.60
2023-05-01T09:12:44.018Z,25.10
2023-05-01T09:13:44.042Z,26.10
2023-05-01T09:14:44.016Z,27.60
2023-05-01T09:15:43.984Z,27.90
2023-05-01T09:16:43.999Z,26.70
2023-05-01T09:17:43.983Z,26.60
2023-05-01T09:18:43.967Z,26.60
2023-05-01T09:19:43.931Z,25.20
2023-05-01T09:20:43.916Z,25.70
2023-05-01T09:21:43.923Z,24.50
2023-05-01T09:22:43.931Z,24.30
2023-05-01T09:23:43.905Z,25.50
2023-05-01T09:24:43.909Z,26.40
2023-05-01T09:25:43.863Z,25.40
2023-05-01T09:26:43.879Z,27.30
2023-05-01T09:27:43.843Z,25.20
2023-05-01T09:28:43.874Z,25.70
2023-05-01T09:29:43.849Z,25.00
2023-05-01T09:30:43.819Z,24.10
2023-05-01T09:31:43.879Z,25.80
2023-05-01T09:32:43.816Z,24.70
2023-05-01T09:33:43.792Z,24.00
2023-05-01T09:34:43.796Z,23.80
2023-05-01T09:35:43.764Z,22.90
2023-05-01T09:36:43.751Z,22.70
2023-05-01T09:37:43.733Z,23.50
2023-05-01T09:38:43.706Z,22.80
2023-05-01T09:39:43.727Z,23.00
2023-05-01T09:40:43.726Z,21.30
2023-05-01T09:41:43.696Z,20.70
2023-05-01T09:42:43.691Z,21.40
2023-05-01T09:43:43.681Z,20.60
2023-05-01T09:44:43.665Z,18.50
2023-05-01T09:45:43.722Z,17.30
2023-05-01T09:46:43.666Z,18.40
2023-05-01T09:47:43.695Z,17.70
2023-05-01T09:48:43.608Z,16.00
2023-05-01T09:49:43.606Z,15.90
2023-05-01T09:50:43.607Z,16.60
2023-05-01T09:51:43.597Z,16.30
2023-05-01T09:52:44.740Z,15.40
2023-05-01T09:53:43.543Z,17.20
2023-05-01T09:54:43.542Z,17.40
2023-05-01T09:55:44.514Z,16.90
2023-05-01T09:56:43.539Z,17.40
2023-05-01T09:57:43.574Z,17.50
2023-05-01T09:58:43.498Z,16.60
2023-05-01T09:59:43.485Z,16.60
2023-05-01T10:00:43.482Z,18.40
2023-05-01T10:01:44.217Z,19.30
2023-05-01T10:02:43.564Z,19.70
2023-05-01T10:03:43.599Z,19.30
2023-05-01T10:04:43.429Z,19.70
2023-05-01T10:05:43.442Z,17.50
2023-05-01T10:06:43.512Z,17.20
2023-05-01T10:07:43.454Z,18.40
2023-05-01T10:08:43.395Z,17.80
2023-05-01T10:09:43.389Z,17.30
2023-05-01T10:10:43.370Z,17.20
2023-05-01T10:11:43.390Z,17.80
2023-05-01T10:12:43.395Z,19.40
2023-05-01T10:13:43.412Z,20.00
2023-05-01T10:14:43.326Z,19.90
2023-05-01T10:15:43.304Z,17.20
2023-05-01T10:16:43.348Z,16.10
2023-05-01T10:17:43.342Z,16.10
2023-05-01T10:18:43.352Z,16.40
2023-05-01T10:19:44.172Z,17.10
2023-05-01T10:20:43.247Z,16.10
2023-05-01T10:21:43.925Z,16.80
2023-05-01T10:22:43.243Z,16.60
2023-05-01T10:23:43.240Z,18.10
2023-05-01T10:24:43.321Z,18.10
2023-05-01T10:25:43.225Z,17.90
2023-05-01T10:26:43.199Z,17.90
2023-05-01T10:27:43.195Z,17.00
2023-05-01T10:28:43.154Z,18.60
2023-05-01T10:29:43.161Z,20.10
2023-05-01T10:30:43.139Z,20.90
2023-05-01T10:31:43.179Z,20.90
2023-05-01T10:32:43.181Z,21.60
2023-05-01T10:33:43.124Z,19.80
2023-05-01T10:34:43.166Z,17.90
2023-05-01T10:35:43.095Z,18.70
2023-05-01T10:36:43.093Z,15.00
2023-05-01T10:37:43.115Z,15.00
2023-05-01T10:38:43.128Z,14.60
2023-05-01T10:39:43.059Z,14.60
2023-05-01T10:40:43.084Z,14.80
2023-05-01T10:41:43.025Z,15.20
2023-05-01T10:42:43.008Z,16.30
2023-05-01T10:43:43.047Z,16.40
2023-05-01T10:44:42.977Z,16.00
2023-05-01T10:45:42.973Z,18.00
2023-05-01T10:46:43.048Z,16.40
2023-05-01T10:47:43.096Z,14.30
2023-05-01T10:48:42.945Z,15.40
2023-05-01T10:49:42.924Z,14.40
2023-05-01T10:50:42.932Z,14.00
2023-05-01T10:51:42.952Z,14.00
2023-05-01T10:52:42.898Z,14.40
2023-05-01T10:53:42.920Z,14.50
2023-05-01T10:54:42.867Z,14.70
2023-05-01T10:55:42.869Z,14.60
2023-05-01T10:56:42.872Z,15.40
2023-05-01T10:57:42.845Z,15.50
2023-05-01T10:58:42.900Z,15.10
2023-05-01T10:59:42.858Z,14.80
2023-05-01T11:00:42.795Z,14.90
2023-05-01T11:01:42.870Z,15.20
2023-05-01T11:02:42.960Z,14.40
2023-05-01T11:03:42.782Z,14.70
2023-05-01T11:04:42.792Z,15.50
2023-05-01T11:05:42.796Z,14.70
2023-05-01T11:06:42.945Z,13.70
2023-05-01T11:07:42.741Z,15.30
2023-05-01T11:08:43.630Z,14.80
2023-05-01T11:09:42.741Z,14.80
2023-05-01T11:10:42.704Z,15.30
2023-05-01T11:11:42.701Z,15.50
2023-05-01T11:12:42.688Z,15.70
2023-05-01T11:13:43.203Z,16.00
2023-05-01T11:14:42.855Z,16.10
2023-05-01T11:15:42.754Z,16.50
2023-05-01T11:16:42.779Z,16.90
2023-05-01T11:17:43.104Z,16.50
2023-05-01T11:18:42.623Z,17.00
2023-05-01T11:19:42.735Z,16.40
2023-05-01T11:20:42.603Z,15.90
2023-05-01T11:21:42.603Z,16.00
2023-05-01T11:22:42.560Z,15.80
2023-05-01T11:23:42.566Z,16.90
2023-05-01T11:24:42.547Z,16.30
2023-05-01T11:25:42.528Z,15.90
2023-05-01T11:26:42.569Z,16.90
2023-05-01T11:27:42.529Z,17.90
2023-05-01T11:28:42.529Z,17.70
2023-05-01T11:29:42.493Z,16.60
2023-05-01T11:30:42.492Z,16.80
2023-05-01T11:31:42.574Z,16.80
2023-05-01T11:32:42.500Z,16.90
2023-05-01T11:33:42.486Z,16.50
2023-05-01T11:34:42.442Z,16.20
2023-05-01T11:35:42.506Z,16.60
2023-05-01T11:36:42.778Z,17.00
2023-05-01T11:37:42.457Z,17.00
2023-05-01T11:38:42.573Z,17.00
2023-05-01T11:39:42.625Z,16.30
2023-05-01T11:40:42.654Z,16.60
2023-05-01T11:41:42.511Z,16.20
2023-05-01T11:42:42.391Z,16.20
2023-05-01T11:43:42.366Z,16.70
2023-05-01T11:44:42.321Z,16.90
2023-05-01T11:45:42.329Z,17.00
2023-05-01T11:46:42.349Z,16.60
2023-05-01T11:47:42.340Z,16.50
2023-05-01T11:48:42.293Z,16.30
2023-05-01T11:49:44.205Z,16.60
2023-05-01T11:50:42.353Z,15.90
2023-05-01T11:51:42.292Z,16.70
2023-05-01T11:52:42.265Z,16.60
2023-05-01T11:53:42.221Z,16.00
2023-05-01T11:54:42.312Z,16.10
2023-05-01T11:55:42.234Z,16.50
2023-05-01T11:56:42.196Z,17.40
2023-05-01T11:57:42.233Z,16.90
2023-05-01T11:58:42.198Z,16.00
2023-05-01T11:59:42.155Z,17.30
2023-05-01T12:00:42.208Z,17.90
2023-05-01T12:01:42.164Z,18.20
2023-05-01T12:02:42.302Z,17.30
2023-05-01T12:03:42.367Z,18.20
2023-05-01T12:04:42.183Z,16.70
2023-05-01T12:05:42.098Z,16.40
2023-05-01T12:06:42.150Z,16.10
2023-05-01T12:07:42.082Z,16.10
2023-05-01T12:08:42.112Z,16.00
2023-05-01T12:09:42.071Z,15.40
2023-05-01T12:10:42.042Z,15.70
2023-05-01T12:11:42.663Z,16.60
2023-05-01T12:12:42.038Z,15.40
2023-05-01T12:13:42.016Z,15.40
2023-05-01T12:14:42.015Z,15.70
2023-05-01T12:15:42.026Z,15.30
2023-05-01T12:16:42.038Z,14.90
2023-05-01T12:17:42.053Z,15.70
2023-05-01T12:18:42.029Z,15.00
2023-05-01T12:19:41.962Z,15.60
2023-05-01T12:20:41.944Z,15.60
2023-05-01T12:21:41.947Z,15.30
2023-05-01T12:22:41.929Z,15.20
2023-05-01T12:23:41.909Z,15.40
2023-05-01T12:24:41.897Z,15.60
2023-05-01T12:25:41.900Z,14.30
2023-05-01T12:26:41.964Z,15.70
2023-05-01T12:27:41.863Z,16.70
2023-05-01T12:28:41.849Z,16.10
2023-05-01T12:29:41.868Z,16.80
2023-05-01T12:30:41.828Z,17.20
2023-05-01T12:31:41.877Z,17.10
2023-05-01T12:32:41.837Z,16.60
2023-05-01T12:33:41.789Z,17.80
2023-05-01T12:34:41.785Z,15.90
2023-05-01T12:35:41.925Z,16.50
2023-05-01T12:36:41.765Z,16.30
2023-05-01T12:37:41.774Z,16.50
2023-05-01T12:38:41.763Z,16.00
2023-05-01T12:39:41.715Z,15.80
2023-05-01T12:40:42.386Z,15.30
2023-05-01T12:41:41.801Z,16.80
2023-05-01T12:42:41.703Z,16.10
2023-05-01T12:43:44.270Z,17.60
2023-05-01T12:44:41.725Z,17.70
2023-05-01T12:45:41.778Z,18.60
2023-05-01T12:46:41.658Z,17.20
2023-05-01T12:47:41.708Z,18.10
2023-05-01T12:48:41.629Z,17.70
2023-05-01T12:49:41.649Z,17.50
2023-05-01T12:50:41.599Z,18.00
2023-05-01T12:51:41.608Z,17.00
2023-05-01T12:52:41.606Z,17.70